sensor_id;sensor_type;location;lat;lon;timestamp;P1;durP1;ratioP1;P2;durP2;ratioP2
31584;SDS011;18191;51.288;12.390;2024-02-26T00:01:51;30.05;;;10.68;;
31584;SDS011;18191;51.288;12.390;2024-02-26T00:06:42;40.93;;;12.97;;
31584;SDS011;18191;51.288;12.390;2024-02-26T00:11:32;27.63;;;10.40;;
31584;SDS011;18191;51.288;12.390;2024-02-26T00:16:23;36.37;;;11.73;;
31584;SDS011;18191;51.288;12.390;2024-02-26T00:21:14;28.08;;;10.70;;
31584;SDS011;18191;51.288;12.390;2024-02-26T00:26:04;30.20;;;10.74;;
31584;SDS011;18191;51.288;12.390;2024-02-26T00:30:54;29.93;;;12.73;;
31584;SDS011;18191;51.288;12.390;2024-02-26T00:35:46;35.65;;;11.18;;
31584;SDS011;18191;51.288;12.390;2024-02-26T00:40:36;32.70;;;11.70;;
31584;SDS011;18191;51.288;12.390;2024-02-26T00:45:27;28.50;;;10.93;;
31584;SDS011;18191;51.288;12.390;2024-02-26T00:50:17;35.13;;;11.93;;
31584;SDS011;18191;51.288;12.390;2024-02-26T00:55:07;28.27;;;11.07;;
31584;SDS011;18191;51.288;12.390;2024-02-26T00:59:58;32.00;;;10.60;;
31584;SDS011;18191;51.288;12.390;2024-02-26T01:04:49;24.20;;;9.43;;
31584;SDS011;18191;51.288;12.390;2024-02-26T01:09:39;25.73;;;10.67;;
31584;SDS011;18191;51.288;12.390;2024-02-26T01:14:29;30.73;;;11.40;;
31584;SDS011;18191;51.288;12.390;2024-02-26T01:19:20;29.28;;;11.50;;
31584;SDS011;18191;51.288;12.390;2024-02-26T01:24:11;31.48;;;11.05;;
31584;SDS011;18191;51.288;12.390;2024-02-26T01:29:01;29.85;;;10.65;;
31584;SDS011;18191;51.288;12.390;2024-02-26T01:33:51;31.13;;;11.40;;
31584;SDS011;18191;51.288;12.390;2024-02-26T01:38:42;27.10;;;7.95;;
31584;SDS011;18191;51.288;12.390;2024-02-26T01:43:33;33.27;;;11.30;;
31584;SDS011;18191;51.288;12.390;2024-02-26T01:48:23;26.52;;;10.40;;
31584;SDS011;18191;51.288;12.390;2024-02-26T01:53:13;34.40;;;11.20;;
31584;SDS011;18191;51.288;12.390;2024-02-26T01:58:04;36.37;;;11.73;;
31584;SDS011;18191;51.288;12.390;2024-02-26T02:02:55;34.70;;;11.82;;
31584;SDS011;18191;51.288;12.390;2024-02-26T02:07:45;35.80;;;11.57;;
31584;SDS011;18191;51.288;12.390;2024-02-26T02:12:38;27.80;;;11.80;;
31584;SDS011;18191;51.288;12.390;2024-02-26T02:17:30;34.87;;;12.80;;
31584;SDS011;18191;51.288;12.390;2024-02-26T02:22:21;39.15;;;11.30;;
31584;SDS011;18191;51.288;12.390;2024-02-26T02:27:11;18.13;;;7.43;;
31584;SDS011;18191;51.288;12.390;2024-02-26T02:32:02;33.43;;;10.87;;
31584;SDS011;18191;51.288;12.390;2024-02-26T02:36:54;29.80;;;10.07;;
31584;SDS011;18191;51.288;12.390;2024-02-26T02:41:45;23.70;;;9.05;;
31584;SDS011;18191;51.288;12.390;2024-02-26T02:46:35;24.37;;;9.60;;
31584;SDS011;18191;51.288;12.390;2024-02-26T02:51:25;31.98;;;11.23;;
31584;SDS011;18191;51.288;12.390;2024-02-26T02:56:15;26.53;;;10.30;;
31584;SDS011;18191;51.288;12.390;2024-02-26T03:01:06;27.88;;;10.65;;
31584;SDS011;18191;51.288;12.390;2024-02-26T03:05:56;25.67;;;10.50;;
31584;SDS011;18191;51.288;12.390;2024-02-26T03:10:47;28.80;;;9.93;;
31584;SDS011;18191;51.288;12.390;2024-02-26T03:15:37;25.13;;;9.93;;
31584;SDS011;18191;51.288;12.390;2024-02-26T03:20:27;24.33;;;9.23;;
31584;SDS011;18191;51.288;12.390;2024-02-26T03:25:17;32.13;;;10.57;;
31584;SDS011;18191;51.288;12.390;2024-02-26T03:30:08;27.27;;;10.83;;
31584;SDS011;18191;51.288;12.390;2024-02-26T03:34:59;29.00;;;11.13;;
31584;SDS011;18191;51.288;12.390;2024-02-26T03:39:50;33.47;;;10.00;;
31584;SDS011;18191;51.288;12.390;2024-02-26T03:44:40;33.10;;;11.03;;
31584;SDS011;18191;51.288;12.390;2024-02-26T03:49:30;31.00;;;10.47;;
31584;SDS011;18191;51.288;12.390;2024-02-26T03:54:21;27.70;;;10.40;;
31584;SDS011;18191;51.288;12.390;2024-02-26T03:59:11;29.30;;;11.00;;
31584;SDS011;18191;51.288;12.390;2024-02-26T04:04:01;30.60;;;10.83;;
31584;SDS011;18191;51.288;12.390;2024-02-26T04:08:51;24.37;;;10.23;;
31584;SDS011;18191;51.288;12.390;2024-02-26T04:13:42;27.97;;;10.23;;
31584;SDS011;18191;51.288;12.390;2024-02-26T04:18:36;32.97;;;11.20;;
31584;SDS011;18191;51.288;12.390;2024-02-26T04:23:27;31.15;;;12.00;;
31584;SDS011;18191;51.288;12.390;2024-02-26T04:28:17;22.40;;;9.77;;
31584;SDS011;18191;51.288;12.390;2024-02-26T04:33:07;39.47;;;13.20;;
31584;SDS011;18191;51.288;12.390;2024-02-26T04:37:57;42.15;;;14.00;;
31584;SDS011;18191;51.288;12.390;2024-02-26T04:42:48;30.03;;;13.60;;
31584;SDS011;18191;51.288;12.390;2024-02-26T04:47:38;32.88;;;13.57;;
31584;SDS011;18191;51.288;12.390;2024-02-26T04:52:29;31.40;;;11.00;;
31584;SDS011;18191;51.288;12.390;2024-02-26T04:57:19;42.90;;;16.38;;
31584;SDS011;18191;51.288;12.390;2024-02-26T05:02:09;52.43;;;17.40;;
31584;SDS011;18191;51.288;12.390;2024-02-26T05:07:00;44.60;;;15.70;;
31584;SDS011;18191;51.288;12.390;2024-02-26T05:11:50;55.30;;;17.38;;
31584;SDS011;18191;51.288;12.390;2024-02-26T05:16:40;49.37;;;18.03;;
31584;SDS011;18191;51.288;12.390;2024-02-26T05:21:31;49.63;;;16.73;;
31584;SDS011;18191;51.288;12.390;2024-02-26T05:26:22;40.97;;;16.33;;
31584;SDS011;18191;51.288;12.390;2024-02-26T05:31:13;47.17;;;16.60;;
31584;SDS011;18191;51.288;12.390;2024-02-26T05:36:03;59.38;;;18.58;;
31584;SDS011;18191;51.288;12.390;2024-02-26T05:40:55;53.95;;;16.50;;
31584;SDS011;18191;51.288;12.390;2024-02-26T05:45:45;57.88;;;17.23;;
31584;SDS011;18191;51.288;12.390;2024-02-26T05:50:35;48.57;;;17.93;;
31584;SDS011;18191;51.288;12.390;2024-02-26T05:55:26;49.45;;;16.92;;
31584;SDS011;18191;51.288;12.390;2024-02-26T06:00:17;37.58;;;15.88;;
31584;SDS011;18191;51.288;12.390;2024-02-26T06:05:08;49.83;;;18.10;;
31584;SDS011;18191;51.288;12.390;2024-02-26T06:09:59;49.47;;;16.67;;
31584;SDS011;18191;51.288;12.390;2024-02-26T06:14:49;44.67;;;16.77;;
31584;SDS011;18191;51.288;12.390;2024-02-26T06:19:39;43.27;;;17.30;;
31584;SDS011;18191;51.288;12.390;2024-02-26T06:24:30;44.80;;;15.15;;
31584;SDS011;18191;51.288;12.390;2024-02-26T06:29:20;39.23;;;14.10;;
31584;SDS011;18191;51.288;12.390;2024-02-26T06:34:10;42.83;;;15.60;;
31584;SDS011;18191;51.288;12.390;2024-02-26T06:39:01;40.10;;;15.50;;
31584;SDS011;18191;51.288;12.390;2024-02-26T06:43:52;43.38;;;13.82;;
31584;SDS011;18191;51.288;12.390;2024-02-26T06:53:34;36.80;;;13.95;;
31584;SDS011;18191;51.288;12.390;2024-02-26T06:58:24;46.57;;;14.83;;
31584;SDS011;18191;51.288;12.390;2024-02-26T07:03:14;34.85;;;14.75;;
31584;SDS011;18191;51.288;12.390;2024-02-26T07:08:05;33.10;;;13.40;;
31584;SDS011;18191;51.288;12.390;2024-02-26T07:12:59;35.90;;;12.63;;
31584;SDS011;18191;51.288;12.390;2024-02-26T07:17:49;34.13;;;13.30;;
31584;SDS011;18191;51.288;12.390;2024-02-26T07:22:40;40.67;;;13.67;;
31584;SDS011;18191;51.288;12.390;2024-02-26T07:27:32;35.38;;;13.75;;
31584;SDS011;18191;51.288;12.390;2024-02-26T07:32:22;31.15;;;13.10;;
31584;SDS011;18191;51.288;12.390;2024-02-26T07:37:13;47.80;;;14.93;;
31584;SDS011;18191;51.288;12.390;2024-02-26T07:42:03;30.40;;;12.33;;
31584;SDS011;18191;51.288;12.390;2024-02-26T07:46:54;34.53;;;12.60;;
31584;SDS011;18191;51.288;12.390;2024-02-26T07:51:44;30.10;;;11.90;;
31584;SDS011;18191;51.288;12.390;2024-02-26T07:56:34;28.42;;;12.50;;
31584;SDS011;18191;51.288;12.390;2024-02-26T08:01:25;32.30;;;12.57;;
31584;SDS011;18191;51.288;12.390;2024-02-26T08:06:16;27.30;;;10.57;;
31584;SDS011;18191;51.288;12.390;2024-02-26T08:11:06;34.67;;;11.60;;
31584;SDS011;18191;51.288;12.390;2024-02-26T08:15:57;29.30;;;10.10;;
31584;SDS011;18191;51.288;12.390;2024-02-26T08:20:48;25.48;;;10.68;;
31584;SDS011;18191;51.288;12.390;2024-02-26T08:25:39;24.42;;;10.30;;
31584;SDS011;18191;51.288;12.390;2024-02-26T08:30:32;28.60;;;10.43;;
31584;SDS011;18191;51.288;12.390;2024-02-26T08:35:24;28.23;;;10.98;;
31584;SDS011;18191;51.288;12.390;2024-02-26T08:40:14;26.88;;;10.43;;
31584;SDS011;18191;51.288;12.390;2024-02-26T08:45:05;21.63;;;9.83;;
31584;SDS011;18191;51.288;12.390;2024-02-26T08:49:56;21.75;;;9.63;;
31584;SDS011;18191;51.288;12.390;2024-02-26T08:54:47;28.50;;;8.80;;
31584;SDS011;18191;51.288;12.390;2024-02-26T08:59:37;21.73;;;9.80;;
31584;SDS011;18191;51.288;12.390;2024-02-26T09:04:27;25.05;;;9.32;;
31584;SDS011;18191;51.288;12.390;2024-02-26T09:09:18;21.50;;;8.43;;
31584;SDS011;18191;51.288;12.390;2024-02-26T09:14:08;27.23;;;8.50;;
31584;SDS011;18191;51.288;12.390;2024-02-26T09:18:58;15.80;;;7.30;;
31584;SDS011;18191;51.288;12.390;2024-02-26T09:23:49;17.45;;;7.95;;
31584;SDS011;18191;51.288;12.390;2024-02-26T09:28:40;15.73;;;7.70;;
31584;SDS011;18191;51.288;12.390;2024-02-26T09:33:30;15.32;;;6.90;;
31584;SDS011;18191;51.288;12.390;2024-02-26T09:38:20;18.58;;;7.22;;
31584;SDS011;18191;51.288;12.390;2024-02-26T09:43:11;13.95;;;7.03;;
31584;SDS011;18191;51.288;12.390;2024-02-26T09:48:04;16.05;;;6.65;;
31584;SDS011;18191;51.288;12.390;2024-02-26T09:52:58;27.75;;;6.65;;
31584;SDS011;18191;51.288;12.390;2024-02-26T09:57:52;21.02;;;5.90;;
31584;SDS011;18191;51.288;12.390;2024-02-26T10:02:43;22.85;;;6.20;;
31584;SDS011;18191;51.288;12.390;2024-02-26T10:07:35;21.27;;;8.82;;
31584;SDS011;18191;51.288;12.390;2024-02-26T10:12:27;17.60;;;5.93;;
31584;SDS011;18191;51.288;12.390;2024-02-26T10:17:19;9.38;;;4.28;;
31584;SDS011;18191;51.288;12.390;2024-02-26T10:22:10;16.05;;;4.15;;
31584;SDS011;18191;51.288;12.390;2024-02-26T10:27:00;16.60;;;4.90;;
31584;SDS011;18191;51.288;12.390;2024-02-26T10:36:42;11.10;;;3.33;;
31584;SDS011;18191;51.288;12.390;2024-02-26T10:41:33;9.68;;;3.80;;
31584;SDS011;18191;51.288;12.390;2024-02-26T10:46:25;11.77;;;3.40;;
31584;SDS011;18191;51.288;12.390;2024-02-26T10:51:16;15.82;;;3.85;;
31584;SDS011;18191;51.288;12.390;2024-02-26T10:56:10;11.68;;;4.10;;
31584;SDS011;18191;51.288;12.390;2024-02-26T11:01:01;13.23;;;3.88;;
31584;SDS011;18191;51.288;12.390;2024-02-26T11:05:54;15.48;;;3.65;;
31584;SDS011;18191;51.288;12.390;2024-02-26T11:10:47;19.85;;;3.50;;
31584;SDS011;18191;51.288;12.390;2024-02-26T11:15:38;8.90;;;3.05;;
31584;SDS011;18191;51.288;12.390;2024-02-26T11:20:29;8.27;;;3.13;;
31584;SDS011;18191;51.288;12.390;2024-02-26T11:25:22;10.40;;;3.22;;
31584;SDS011;18191;51.288;12.390;2024-02-26T11:30:13;9.52;;;3.65;;
31584;SDS011;18191;51.288;12.390;2024-02-26T11:35:06;10.32;;;3.17;;
31584;SDS011;18191;51.288;12.390;2024-02-26T11:39:58;7.60;;;3.15;;
31584;SDS011;18191;51.288;12.390;2024-02-26T11:44:49;9.75;;;3.58;;
31584;SDS011;18191;51.288;12.390;2024-02-26T11:49:40;12.45;;;4.25;;
31584;SDS011;18191;51.288;12.390;2024-02-26T11:54:38;17.48;;;5.88;;
31584;SDS011;18191;51.288;12.390;2024-02-26T11:59:38;12.30;;;5.47;;
31584;SDS011;18191;51.288;12.390;2024-02-26T12:04:31;22.10;;;6.63;;
31584;SDS011;18191;51.288;12.390;2024-02-26T12:09:31;15.75;;;6.13;;
31584;SDS011;18191;51.288;12.390;2024-02-26T12:14:25;18.67;;;6.30;;
31584;SDS011;18191;51.288;12.390;2024-02-26T12:19:16;14.45;;;5.80;;
31584;SDS011;18191;51.288;12.390;2024-02-26T12:24:09;15.95;;;5.60;;
31584;SDS011;18191;51.288;12.390;2024-02-26T12:29:01;17.63;;;6.32;;
31584;SDS011;18191;51.288;12.390;2024-02-26T12:33:51;21.33;;;6.10;;
31584;SDS011;18191;51.288;12.390;2024-02-26T12:38:42;12.55;;;5.18;;
31584;SDS011;18191;51.288;12.390;2024-02-26T12:43:32;12.90;;;5.55;;
31584;SDS011;18191;51.288;12.390;2024-02-26T12:48:22;14.60;;;5.07;;
31584;SDS011;18191;51.288;12.390;2024-02-26T12:53:13;8.75;;;4.55;;
31584;SDS011;18191;51.288;12.390;2024-02-26T12:58:03;18.93;;;6.53;;
31584;SDS011;18191;51.288;12.390;2024-02-26T13:07:45;8.88;;;4.32;;
31584;SDS011;18191;51.288;12.390;2024-02-26T13:12:43;17.65;;;5.35;;
31584;SDS011;18191;51.288;12.390;2024-02-26T13:17:34;17.88;;;5.50;;
31584;SDS011;18191;51.288;12.390;2024-02-26T13:22:25;10.13;;;4.70;;
31584;SDS011;18191;51.288;12.390;2024-02-26T13:27:20;10.87;;;4.50;;
31584;SDS011;18191;51.288;12.390;2024-02-26T13:32:14;24.33;;;5.97;;
31584;SDS011;18191;51.288;12.390;2024-02-26T13:37:04;11.50;;;5.05;;
31584;SDS011;18191;51.288;12.390;2024-02-26T13:41:56;13.35;;;5.50;;
31584;SDS011;18191;51.288;12.390;2024-02-26T13:46:53;10.07;;;4.50;;
31584;SDS011;18191;51.288;12.390;2024-02-26T13:51:43;13.15;;;5.95;;
31584;SDS011;18191;51.288;12.390;2024-02-26T13:56:33;22.23;;;6.47;;
31584;SDS011;18191;51.288;12.390;2024-02-26T14:01:24;21.40;;;5.50;;
31584;SDS011;18191;51.288;12.390;2024-02-26T14:11:05;16.60;;;6.33;;
31584;SDS011;18191;51.288;12.390;2024-02-26T14:15:56;8.65;;;5.00;;
31584;SDS011;18191;51.288;12.390;2024-02-26T14:20:46;17.63;;;5.95;;
31584;SDS011;18191;51.288;12.390;2024-02-26T14:25:37;16.60;;;5.93;;
31584;SDS011;18191;51.288;12.390;2024-02-26T14:30:27;10.10;;;5.03;;
31584;SDS011;18191;51.288;12.390;2024-02-26T14:35:17;15.00;;;5.20;;
31584;SDS011;18191;51.288;12.390;2024-02-26T14:40:08;16.73;;;5.38;;
31584;SDS011;18191;51.288;12.390;2024-02-26T14:44:58;12.00;;;4.88;;
31584;SDS011;18191;51.288;12.390;2024-02-26T14:49:49;13.50;;;4.90;;
31584;SDS011;18191;51.288;12.390;2024-02-26T14:54:41;14.18;;;4.25;;
31584;SDS011;18191;51.288;12.390;2024-02-26T14:59:32;16.02;;;4.13;;
31584;SDS011;18191;51.288;12.390;2024-02-26T15:04:23;10.43;;;4.43;;
31584;SDS011;18191;51.288;12.390;2024-02-26T15:09:13;12.48;;;4.03;;
31584;SDS011;18191;51.288;12.390;2024-02-26T15:14:04;17.97;;;4.83;;
31584;SDS011;18191;51.288;12.390;2024-02-26T15:18:54;9.70;;;4.20;;
31584;SDS011;18191;51.288;12.390;2024-02-26T15:23:45;9.45;;;3.65;;
31584;SDS011;18191;51.288;12.390;2024-02-26T15:28:36;13.20;;;3.92;;
31584;SDS011;18191;51.288;12.390;2024-02-26T15:33:27;12.32;;;4.47;;
31584;SDS011;18191;51.288;12.390;2024-02-26T15:38:17;9.37;;;4.43;;
31584;SDS011;18191;51.288;12.390;2024-02-26T15:43:07;12.37;;;4.73;;
31584;SDS011;18191;51.288;12.390;2024-02-26T15:47:58;12.27;;;4.47;;
31584;SDS011;18191;51.288;12.390;2024-02-26T15:52:48;25.27;;;4.80;;
31584;SDS011;18191;51.288;12.390;2024-02-26T15:57:40;15.23;;;5.55;;
31584;SDS011;18191;51.288;12.390;2024-02-26T16:02:31;19.08;;;6.22;;
31584;SDS011;18191;51.288;12.390;2024-02-26T16:07:23;15.77;;;7.47;;
31584;SDS011;18191;51.288;12.390;2024-02-26T16:12:30;18.90;;;8.02;;
31584;SDS011;18191;51.288;12.390;2024-02-26T16:17:31;22.27;;;8.43;;
31584;SDS011;18191;51.288;12.390;2024-02-26T16:22:27;20.92;;;7.85;;
31584;SDS011;18191;51.288;12.390;2024-02-26T16:27:18;21.43;;;8.70;;
31584;SDS011;18191;51.288;12.390;2024-02-26T16:32:08;32.77;;;7.80;;
31584;SDS011;18191;51.288;12.390;2024-02-26T16:36:58;21.83;;;8.10;;
31584;SDS011;18191;51.288;12.390;2024-02-26T16:41:49;23.60;;;8.85;;
31584;SDS011;18191;51.288;12.390;2024-02-26T16:46:39;25.10;;;8.37;;
31584;SDS011;18191;51.288;12.390;2024-02-26T16:51:29;26.10;;;8.13;;
31584;SDS011;18191;51.288;12.390;2024-02-26T16:56:19;22.13;;;8.47;;
31584;SDS011;18191;51.288;12.390;2024-02-26T17:01:10;21.30;;;9.27;;
31584;SDS011;18191;51.288;12.390;2024-02-26T17:06:00;23.20;;;8.70;;
31584;SDS011;18191;51.288;12.390;2024-02-26T17:10:51;28.60;;;9.67;;
31584;SDS011;18191;51.288;12.390;2024-02-26T17:15:41;23.45;;;9.75;;
31584;SDS011;18191;51.288;12.390;2024-02-26T17:20:32;28.80;;;9.67;;
31584;SDS011;18191;51.288;12.390;2024-02-26T17:25:22;26.15;;;9.48;;
31584;SDS011;18191;51.288;12.390;2024-02-26T17:30:12;27.27;;;9.73;;
31584;SDS011;18191;51.288;12.390;2024-02-26T17:35:03;30.17;;;9.57;;
31584;SDS011;18191;51.288;12.390;2024-02-26T17:39:54;27.60;;;9.65;;
31584;SDS011;18191;51.288;12.390;2024-02-26T17:44:44;29.10;;;9.15;;
31584;SDS011;18191;51.288;12.390;2024-02-26T17:49:34;27.58;;;10.32;;
31584;SDS011;18191;51.288;12.390;2024-02-26T17:54:25;32.17;;;10.90;;
31584;SDS011;18191;51.288;12.390;2024-02-26T17:59:15;24.87;;;10.80;;
31584;SDS011;18191;51.288;12.390;2024-02-26T18:04:05;24.30;;;9.37;;
31584;SDS011;18191;51.288;12.390;2024-02-26T18:08:56;25.93;;;10.40;;
31584;SDS011;18191;51.288;12.390;2024-02-26T18:13:46;29.67;;;10.38;;
31584;SDS011;18191;51.288;12.390;2024-02-26T18:18:37;26.23;;;9.10;;
31584;SDS011;18191;51.288;12.390;2024-02-26T18:23:27;21.83;;;9.53;;
31584;SDS011;18191;51.288;12.390;2024-02-26T18:28:17;28.73;;;9.47;;
31584;SDS011;18191;51.288;12.390;2024-02-26T18:33:08;26.25;;;10.35;;
31584;SDS011;18191;51.288;12.390;2024-02-26T18:37:58;22.95;;;10.00;;
31584;SDS011;18191;51.288;12.390;2024-02-26T18:42:48;24.00;;;10.13;;
31584;SDS011;18191;51.288;12.390;2024-02-26T18:47:39;22.40;;;8.48;;
31584;SDS011;18191;51.288;12.390;2024-02-26T18:52:29;31.17;;;9.97;;
31584;SDS011;18191;51.288;12.390;2024-02-26T18:57:20;23.13;;;9.37;;
31584;SDS011;18191;51.288;12.390;2024-02-26T19:02:10;25.10;;;10.15;;
31584;SDS011;18191;51.288;12.390;2024-02-26T19:07:00;28.98;;;9.45;;
31584;SDS011;18191;51.288;12.390;2024-02-26T19:11:51;20.40;;;8.27;;
31584;SDS011;18191;51.288;12.390;2024-02-26T19:16:45;20.48;;;8.27;;
31584;SDS011;18191;51.288;12.390;2024-02-26T19:21:35;15.60;;;7.30;;
31584;SDS011;18191;51.288;12.390;2024-02-26T19:26:26;25.33;;;8.15;;
31584;SDS011;18191;51.288;12.390;2024-02-26T19:31:16;16.95;;;7.25;;
31584;SDS011;18191;51.288;12.390;2024-02-26T19:36:07;23.73;;;9.60;;
31584;SDS011;18191;51.288;12.390;2024-02-26T19:40:57;17.47;;;8.17;;
31584;SDS011;18191;51.288;12.390;2024-02-26T19:45:54;17.52;;;7.63;;
31584;SDS011;18191;51.288;12.390;2024-02-26T19:50:45;18.67;;;8.30;;
31584;SDS011;18191;51.288;12.390;2024-02-26T19:55:38;23.80;;;8.60;;
31584;SDS011;18191;51.288;12.390;2024-02-26T20:00:29;18.88;;;8.45;;
31584;SDS011;18191;51.288;12.390;2024-02-26T20:05:20;21.60;;;8.27;;
31584;SDS011;18191;51.288;12.390;2024-02-26T20:10:11;22.07;;;9.07;;
31584;SDS011;18191;51.288;12.390;2024-02-26T20:15:02;27.70;;;10.40;;
31584;SDS011;18191;51.288;12.390;2024-02-26T20:19:54;24.73;;;9.23;;
31584;SDS011;18191;51.288;12.390;2024-02-26T20:24:47;31.17;;;10.45;;
31584;SDS011;18191;51.288;12.390;2024-02-26T20:29:38;26.40;;;11.02;;
31584;SDS011;18191;51.288;12.390;2024-02-26T20:34:34;26.02;;;10.13;;
31584;SDS011;18191;51.288;12.390;2024-02-26T20:39:26;26.35;;;11.23;;
31584;SDS011;18191;51.288;12.390;2024-02-26T20:44:25;24.33;;;9.90;;
31584;SDS011;18191;51.288;12.390;2024-02-26T20:49:15;25.85;;;11.55;;
31584;SDS011;18191;51.288;12.390;2024-02-26T20:54:07;31.08;;;10.85;;
31584;SDS011;18191;51.288;12.390;2024-02-26T20:59:01;28.73;;;11.07;;
31584;SDS011;18191;51.288;12.390;2024-02-26T21:03:52;31.73;;;11.47;;
31584;SDS011;18191;51.288;12.390;2024-02-26T21:08:42;32.83;;;13.13;;
31584;SDS011;18191;51.288;12.390;2024-02-26T21:13:32;36.10;;;13.25;;
31584;SDS011;18191;51.288;12.390;2024-02-26T21:18:22;30.10;;;13.23;;
31584;SDS011;18191;51.288;12.390;2024-02-26T21:23:13;37.35;;;13.05;;
31584;SDS011;18191;51.288;12.390;2024-02-26T21:28:03;39.47;;;13.33;;
31584;SDS011;18191;51.288;12.390;2024-02-26T21:32:55;37.33;;;13.93;;
31584;SDS011;18191;51.288;12.390;2024-02-26T21:37:45;32.50;;;14.50;;
31584;SDS011;18191;51.288;12.390;2024-02-26T21:42:36;30.50;;;12.52;;
31584;SDS011;18191;51.288;12.390;2024-02-26T21:47:26;39.53;;;14.93;;
31584;SDS011;18191;51.288;12.390;2024-02-26T21:52:17;32.50;;;13.83;;
31584;SDS011;18191;51.288;12.390;2024-02-26T21:57:07;40.20;;;15.10;;
31584;SDS011;18191;51.288;12.390;2024-02-26T22:01:58;30.87;;;12.40;;
31584;SDS011;18191;51.288;12.390;2024-02-26T22:06:48;36.15;;;14.68;;
31584;SDS011;18191;51.288;12.390;2024-02-26T22:11:40;35.20;;;13.98;;
31584;SDS011;18191;51.288;12.390;2024-02-26T22:16:31;35.40;;;13.63;;
31584;SDS011;18191;51.288;12.390;2024-02-26T22:21:21;35.97;;;14.83;;
31584;SDS011;18191;51.288;12.390;2024-02-26T22:26:13;38.50;;;14.82;;
31584;SDS011;18191;51.288;12.390;2024-02-26T22:35:54;39.05;;;15.32;;
31584;SDS011;18191;51.288;12.390;2024-02-26T22:40:44;47.13;;;14.20;;
31584;SDS011;18191;51.288;12.390;2024-02-26T22:45:35;34.10;;;14.66;;
31584;SDS011;18191;51.288;12.390;2024-02-26T22:50:25;40.07;;;15.20;;
31584;SDS011;18191;51.288;12.390;2024-02-26T22:55:15;34.87;;;15.37;;
31584;SDS011;18191;51.288;12.390;2024-02-26T23:00:06;36.33;;;14.07;;
31584;SDS011;18191;51.288;12.390;2024-02-26T23:05:14;42.17;;;14.93;;
31584;SDS011;18191;51.288;12.390;2024-02-26T23:10:04;36.82;;;14.86;;
31584;SDS011;18191;51.288;12.390;2024-02-26T23:14:55;35.20;;;15.00;;
31584;SDS011;18191;51.288;12.390;2024-02-26T23:19:45;38.97;;;14.73;;
31584;SDS011;18191;51.288;12.390;2024-02-26T23:24:35;42.03;;;15.30;;
31584;SDS011;18191;51.288;12.390;2024-02-26T23:29:26;34.57;;;14.03;;
31584;SDS011;18191;51.288;12.390;2024-02-26T23:34:16;40.58;;;15.32;;
31584;SDS011;18191;51.288;12.390;2024-02-26T23:39:06;38.60;;;15.45;;
31584;SDS011;18191;51.288;12.390;2024-02-26T23:43:57;45.55;;;15.20;;
31584;SDS011;18191;51.288;12.390;2024-02-26T23:48:47;41.40;;;15.52;;
31584;SDS011;18191;51.288;12.390;2024-02-26T23:53:38;40.95;;;15.10;;
31584;SDS011;18191;51.288;12.390;2024-02-26T23:58:28;37.63;;;15.23;;
